Time;durP1;ratioP1;P1;durP2;ratioP2;P2;SDS_P1;SDS_P2;PMS_P1;PMS_P2;Temp;Humidity;BMP_temperature;BMP_pressure;BME280_temperature;BME280_humidity;BME280_pressure;Samples;Min_cycle;Max_cycle;Signal;HPM_P1;HPM_P2
2023/07/24 00:01:05;;;;;;;12.05;4.30;;;18.40;98.90;;;;;;5007094;28;86398;-77
2023/07/24 00:03:31;;;;;;;8.93;4.38;;;18.40;99.20;;;;;;5006133;28;85834;-77
2023/07/24 00:05:59;;;;;;;8.43;4.32;;;18.40;99.30;;;;;;5008260;28;86358;-77
2023/07/24 00:08:25;;;;;;;9.07;4.95;;;18.30;99.50;;;;;;4990312;28;89800;-77
2023/07/24 00:10:50;;;;;;;10.13;4.55;;;18.30;99.70;;;;;;5007690;28;86953;-77
2023/07/24 00:13:16;;;;;;;15.43;5.00;;;18.30;99.90;;;;;;5006536;28;87430;-77
2023/07/24 00:15:42;;;;;;;13.32;4.72;;;18.30;99.90;;;;;;5007723;28;86350;-77
2023/07/24 00:18:07;;;;;;;10.05;4.50;;;18.30;99.90;;;;;;5008819;28;87331;-77
2023/07/24 00:20:33;;;;;;;12.50;5.15;;;18.30;99.90;;;;;;5006245;27;86640;-77
2023/07/24 00:22:59;;;;;;;15.80;4.95;;;18.30;99.90;;;;;;4989250;28;87288;-77
2023/07/24 00:25:24;;;;;;;13.05;4.55;;;18.30;99.90;;;;;;5008503;27;86041;-77
2023/07/24 00:27:50;;;;;;;10.60;4.65;;;18.30;99.90;;;;;;5007639;28;87637;-77
2023/07/24 00:30:15;;;;;;;12.25;4.53;;;18.30;99.90;;;;;;4990553;28;88655;-77
2023/07/24 00:32:41;;;;;;;8.50;4.72;;;18.40;99.90;;;;;;4990287;28;86730;-77
2023/07/24 00:35:08;;;;;;;11.82;4.57;;;18.40;99.90;;;;;;5006865;28;86735;-77
2023/07/24 00:37:33;;;;;;;15.40;4.82;;;18.40;99.90;;;;;;5006667;28;87309;-77
2023/07/24 00:39:59;;;;;;;11.43;4.70;;;18.30;99.90;;;;;;5005859;28;86607;-77
2023/07/24 00:42:24;;;;;;;13.48;5.25;;;18.40;99.90;;;;;;5004966;28;87180;-77
2023/07/24 00:44:50;;;;;;;15.90;5.45;;;18.40;99.90;;;;;;5009128;28;86543;-77
2023/07/24 00:47:17;;;;;;;8.02;3.95;;;18.40;99.90;;;;;;5009207;28;87362;-77
2023/07/24 00:49:43;;;;;;;10.48;4.45;;;18.40;99.90;;;;;;5005206;28;87202;-77
2023/07/24 00:52:08;;;;;;;12.85;4.47;;;18.40;99.90;;;;;;5006757;28;86579;-77
2023/07/24 00:54:34;;;;;;;9.00;4.40;;;18.40;99.90;;;;;;5006982;28;86485;-77
2023/07/24 00:57:01;;;;;;;11.60;5.25;;;18.50;99.90;;;;;;4989063;28;89654;-77
2023/07/24 00:59:27;;;;;;;14.07;5.60;;;18.50;99.80;;;;;;5006283;28;87088;-77
2023/07/24 01:01:52;;;;;;;8.85;4.72;;;18.50;99.90;;;;;;5006783;28;86526;-77
2023/07/24 01:04:19;;;;;;;13.02;5.13;;;18.50;99.80;;;;;;5007755;28;85864;-77
2023/07/24 01:06:45;;;;;;;13.73;5.45;;;18.50;99.60;;;;;;5006087;28;87134;-77
2023/07/24 01:09:11;;;;;;;11.98;4.82;;;18.50;99.60;;;;;;5021906;28;90018;-77
2023/07/24 01:11:42;;;;;;;13.18;4.68;;;18.60;99.40;;;;;;5005256;28;86887;-77
2023/07/24 01:14:32;;;;;;;9.13;4.78;;;18.60;99.40;;;;;;5005947;28;86518;-77
2023/07/24 01:17:00;;;;;;;11.75;4.63;;;18.60;99.20;;;;;;4995909;28;89551;-77
2023/07/24 01:19:40;;;;;;;12.43;5.47;;;18.60;99.20;;;;;;5005731;28;87560;-77
2023/07/24 01:22:21;;;;;;;12.80;4.82;;;18.60;99.20;;;;;;5006159;28;85809;-77
2023/07/24 01:25:01;;;;;;;11.88;4.20;;;18.70;99.20;;;;;;5003919;28;86478;-77
2023/07/24 01:27:27;;;;;;;16.52;4.32;;;18.70;99.00;;;;;;5006406;28;87445;-77
2023/07/24 01:29:52;;;;;;;11.30;4.13;;;18.70;98.90;;;;;;5007080;28;86772;-77
2023/07/24 01:32:19;;;;;;;15.88;4.20;;;18.70;98.80;;;;;;5007285;28;86468;-77
2023/07/24 01:34:45;;;;;;;8.43;5.10;;;18.70;98.60;;;;;;5005525;27;86163;-77
2023/07/24 01:37:12;;;;;;;12.98;4.63;;;18.80;98.80;;;;;;5007038;28;88095;-77
2023/07/24 01:39:40;;;;;;;13.23;4.28;;;18.80;98.90;;;;;;5005927;28;86850;-77
2023/07/24 01:42:06;;;;;;;14.68;5.65;;;18.80;98.80;;;;;;5005161;28;86626;-78
2023/07/24 01:44:32;;;;;;;15.52;4.80;;;18.80;98.90;;;;;;5004514;28;86700;-78
2023/07/24 01:46:58;;;;;;;12.32;3.92;;;18.70;99.00;;;;;;5005402;28;87952;-78
2023/07/24 01:49:23;;;;;;;18.50;5.32;;;18.70;99.00;;;;;;5005493;28;86146;-78
2023/07/24 01:51:49;;;;;;;11.60;4.22;;;18.70;99.10;;;;;;5003656;28;86302;-78
2023/07/24 01:54:14;;;;;;;9.30;4.72;;;18.60;99.20;;;;;;5006661;28;86439;-78
2023/07/24 01:56:40;;;;;;;11.55;4.65;;;18.60;99.30;;;;;;5005801;27;88323;-78
2023/07/24 01:59:06;;;;;;;14.65;5.40;;;18.60;99.60;;;;;;5003263;28;87134;-78
2023/07/24 02:01:31;;;;;;;7.88;4.55;;;18.50;99.50;;;;;;5006731;28;86228;-78
2023/07/24 02:03:57;;;;;;;12.73;4.80;;;18.50;99.70;;;;;;5006306;27;86414;-78
2023/07/24 02:06:23;;;;;;;13.57;5.57;;;18.50;99.60;;;;;;5006169;28;86980;-78
2023/07/24 02:08:51;;;;;;;15.85;5.40;;;18.40;99.90;;;;;;5006096;28;86817;-77
2023/07/24 02:11:17;;;;;;;10.93;5.18;;;18.50;99.70;;;;;;5005312;28;86140;-78
2023/07/24 02:13:46;;;;;;;13.40;4.68;;;18.40;99.70;;;;;;5004771;28;86586;-78
2023/07/24 02:16:12;;;;;;;13.10;4.95;;;18.40;99.80;;;;;;5005142;28;87597;-78
2023/07/24 02:18:40;;;;;;;11.90;6.22;;;18.40;99.90;;;;;;5004106;28;86582;-78
2023/07/24 02:21:06;;;;;;;15.40;5.90;;;18.30;99.80;;;;;;5005144;28;86702;-78
2023/07/24 02:23:31;;;;;;;9.73;4.85;;;18.40;99.80;;;;;;5003351;28;85833;-78
2023/07/24 02:25:57;;;;;;;14.73;5.35;;;18.30;99.80;;;;;;4986911;28;90404;-77
2023/07/24 02:28:22;;;;;;;7.63;4.75;;;18.30;99.80;;;;;;5004687;28;87070;-78
2023/07/24 02:30:48;;;;;;;12.50;4.90;;;18.40;99.80;;;;;;5005522;28;86019;-78
2023/07/24 02:33:14;;;;;;;9.32;4.93;;;18.30;99.90;;;;;;5006171;28;86377;-77
2023/07/24 02:35:41;;;;;;;12.35;5.43;;;18.30;99.80;;;;;;5005572;28;88000;-78
2023/07/24 02:38:07;;;;;;;16.42;5.38;;;18.40;99.80;;;;;;5004499;28;87601;-78
2023/07/24 02:40:33;;;;;;;9.40;5.13;;;18.30;99.80;;;;;;5006115;28;86679;-77
2023/07/24 02:42:59;;;;;;;11.10;4.82;;;18.30;99.80;;;;;;5005348;27;86683;-77
2023/07/24 02:45:25;;;;;;;10.10;4.82;;;18.30;99.80;;;;;;5006843;28;87240;-77
2023/07/24 02:47:50;;;;;;;11.13;5.25;;;18.30;99.90;;;;;;5004996;28;86527;-77
2023/07/24 02:50:16;;;;;;;9.30;4.70;;;18.30;99.90;;;;;;5004951;28;86674;-78
2023/07/24 02:52:41;;;;;;;10.77;5.43;;;18.30;99.90;;;;;;5004481;28;86526;-78
2023/07/24 02:55:07;;;;;;;12.77;5.07;;;18.30;99.90;;;;;;5003948;28;87547;-78
2023/07/24 02:57:33;;;;;;;9.98;5.05;;;18.30;99.90;;;;;;5004217;28;86818;-78
2023/07/24 02:59:58;;;;;;;11.82;5.47;;;18.30;99.90;;;;;;5005752;28;86579;-78
2023/07/24 03:02:24;;;;;;;11.35;5.53;;;18.20;99.90;;;;;;5005354;28;86421;-78
2023/07/24 03:04:50;;;;;;;17.73;5.53;;;18.20;99.90;;;;;;5007802;28;88118;-78
2023/07/24 03:07:16;;;;;;;14.35;5.75;;;18.10;99.90;;;;;;5009629;28;87574;-78
2023/07/24 03:09:41;;;;;;;14.00;5.60;;;18.10;99.90;;;;;;5007140;28;86644;-78
2023/07/24 03:12:07;;;;;;;12.95;5.70;;;18.10;99.90;;;;;;5007520;28;86299;-78
2023/07/24 03:14:33;;;;;;;9.63;5.43;;;18.10;99.90;;;;;;4988983;28;91305;-78
2023/07/24 03:16:58;;;;;;;11.50;5.50;;;18.00;99.90;;;;;;5008616;27;86846;-78
2023/07/24 03:19:24;;;;;;;11.27;5.65;;;18.00;99.90;;;;;;5008298;28;86617;-78
2023/07/24 03:21:49;;;;;;;17.92;6.03;;;18.00;99.90;;;;;;5007843;28;85821;-78
2023/07/24 03:24:15;;;;;;;12.77;5.93;;;18.00;99.90;;;;;;5009908;28;86509;-78
2023/07/24 03:26:41;;;;;;;12.02;5.18;;;18.00;99.90;;;;;;5008263;27;87479;-78
2023/07/24 03:29:07;;;;;;;12.95;5.05;;;18.00;99.90;;;;;;5007159;27;86557;-77
2023/07/24 03:31:32;;;;;;;12.13;5.20;;;18.00;99.90;;;;;;5008127;28;85924;-77
2023/07/24 03:33:58;;;;;;;8.88;5.10;;;18.10;99.90;;;;;;5008929;28;87502;-78
2023/07/24 03:36:23;;;;;;;7.45;5.05;;;18.10;99.90;;;;;;5008843;28;86730;-78
2023/07/24 03:38:49;;;;;;;13.15;5.68;;;18.10;99.90;;;;;;5008278;28;86104;-78
2023/07/24 03:41:14;;;;;;;10.77;5.50;;;18.10;99.90;;;;;;5008420;28;86289;-78
2023/07/24 03:43:40;;;;;;;12.32;5.43;;;18.10;99.90;;;;;;5008533;28;86457;-78
2023/07/24 03:46:06;;;;;;;10.00;5.18;;;18.10;99.90;;;;;;4990569;28;89733;-78
2023/07/24 03:48:31;;;;;;;10.02;5.22;;;18.00;99.90;;;;;;5008450;28;85948;-78
2023/07/24 03:51:01;;;;;;;8.30;5.43;;;18.10;99.90;;;;;;5009270;28;86458;-78
2023/07/24 03:53:27;;;;;;;8.75;4.97;;;18.10;99.90;;;;;;5006676;28;88091;-78
2023/07/24 03:55:53;;;;;;;10.02;4.68;;;18.00;99.90;;;;;;5008247;27;86521;-78
2023/07/24 03:58:19;;;;;;;8.88;5.18;;;18.00;99.90;;;;;;5006417;28;86780;-78
2023/07/24 04:00:44;;;;;;;10.45;4.28;;;18.00;99.90;;;;;;5008837;28;86118;-78
2023/07/24 04:03:10;;;;;;;7.75;4.93;;;18.00;99.90;;;;;;5008448;28;87391;-78
2023/07/24 04:05:36;;;;;;;8.45;4.30;;;18.00;99.90;;;;;;5008303;27;87766;-77
2023/07/24 04:08:02;;;;;;;10.70;4.68;;;18.00;99.90;;;;;;5008869;28;86416;-78
2023/07/24 04:10:28;;;;;;;11.93;4.40;;;18.00;99.90;;;;;;5023861;28;86263;-79
2023/07/24 04:12:54;;;;;;;9.55;5.53;;;18.00;99.90;;;;;;5007767;28;87550;-78
2023/07/24 04:15:20;;;;;;;10.85;4.72;;;18.00;99.90;;;;;;5007234;28;86335;-78
2023/07/24 04:17:45;;;;;;;8.13;4.75;;;18.00;99.90;;;;;;5009694;28;86238;-78
2023/07/24 04:20:11;;;;;;;10.32;5.20;;;18.00;99.90;;;;;;5007574;28;86341;-78
2023/07/24 04:22:37;;;;;;;10.07;5.07;;;18.00;99.90;;;;;;5007263;28;86376;-78
2023/07/24 04:25:03;;;;;;;11.98;6.07;;;18.00;99.90;;;;;;5008602;28;86852;-78
2023/07/24 04:27:28;;;;;;;9.15;4.82;;;18.00;99.90;;;;;;5007875;27;86816;-78
2023/07/24 04:29:54;;;;;;;11.90;5.25;;;18.00;99.90;;;;;;5008438;28;86340;-78
2023/07/24 04:32:20;;;;;;;10.18;5.13;;;18.00;99.90;;;;;;5007813;28;88450;-78
2023/07/24 04:34:45;;;;;;;10.38;4.60;;;18.00;99.90;;;;;;5007431;28;86895;-77
2023/07/24 04:37:11;;;;;;;8.50;4.55;;;18.00;99.90;;;;;;5006930;27;86368;-78
2023/07/24 04:39:39;;;;;;;10.45;4.57;;;17.90;99.90;;;;;;5006952;28;86085;-78
2023/07/24 04:42:05;;;;;;;8.07;4.70;;;18.00;99.90;;;;;;5009459;28;87841;-77
2023/07/24 04:44:31;;;;;;;6.90;3.75;;;17.90;99.90;;;;;;5005836;27;87511;-78
2023/07/24 04:46:58;;;;;;;6.18;3.80;;;18.00;99.90;;;;;;5006083;28;86198;-77
2023/07/24 04:49:24;;;;;;;9.82;3.88;;;18.00;99.90;;;;;;5006384;28;86470;-78
2023/07/24 04:51:50;;;;;;;7.38;3.85;;;18.00;99.90;;;;;;5006404;27;87694;-77
2023/07/24 04:54:16;;;;;;;6.65;3.28;;;18.00;99.90;;;;;;4989820;28;90010;-77
2023/07/24 04:56:42;;;;;;;6.57;3.67;;;18.00;99.90;;;;;;5006503;27;86327;-77
2023/07/24 04:59:07;;;;;;;6.30;3.63;;;18.00;99.90;;;;;;5006470;28;86371;-77
2023/07/24 05:01:33;;;;;;;6.70;4.22;;;18.00;99.90;;;;;;5007171;28;86370;-77
2023/07/24 05:03:59;;;;;;;5.88;3.13;;;18.10;99.90;;;;;;5006194;28;86643;-77
2023/07/24 05:06:24;;;;;;;7.18;3.58;;;18.10;99.90;;;;;;5006498;28;86399;-77
2023/07/24 05:08:50;;;;;;;10.15;3.90;;;18.20;99.90;;;;;;5007235;28;86500;-77
2023/07/24 05:11:15;;;;;;;6.50;3.40;;;18.20;99.90;;;;;;5005826;28;87480;-77
2023/07/24 05:13:41;;;;;;;6.90;3.33;;;18.20;99.90;;;;;;5007083;27;86957;-77
2023/07/24 05:16:06;;;;;;;4.55;2.97;;;18.30;99.90;;;;;;5006809;28;86701;-77
2023/07/24 05:18:32;;;;;;;5.70;2.75;;;18.30;99.80;;;;;;5005920;28;85788;-77
2023/07/24 05:20:58;;;;;;;5.00;2.60;;;18.30;99.60;;;;;;5008302;28;87699;-77
2023/07/24 05:23:23;;;;;;;4.90;2.97;;;18.30;99.80;;;;;;5005931;27;87017;-77
2023/07/24 05:25:58;;;;;;;4.82;2.55;;;18.30;99.90;;;;;;4988087;28;86316;-77
2023/07/24 05:28:25;;;;;;;5.63;2.88;;;18.40;99.40;;;;;;5006232;28;86364;-77
2023/07/24 05:30:51;;;;;;;3.55;2.22;;;18.40;99.50;;;;;;5009562;28;86920;-77
2023/07/24 05:33:17;;;;;;;5.15;2.53;;;18.40;99.40;;;;;;5007289;28;88215;-77
2023/07/24 05:35:43;;;;;;;4.63;2.53;;;18.40;99.40;;;;;;5006457;28;87699;-77
2023/07/24 05:38:09;;;;;;;4.20;2.30;;;18.40;99.30;;;;;;5006573;28;86211;-77
2023/07/24 05:40:35;;;;;;;3.65;2.30;;;18.40;99.30;;;;;;5004342;28;86373;-77
2023/07/24 05:43:01;;;;;;;4.05;2.28;;;18.40;99.50;;;;;;5005852;28;86911;-77
2023/07/24 05:45:27;;;;;;;4.30;2.28;;;18.40;99.50;;;;;;5005986;28;86619;-78
2023/07/24 05:47:53;;;;;;;5.72;3.38;;;18.30;99.70;;;;;;5007987;28;86381;-78
2023/07/24 05:50:19;;;;;;;6.65;2.33;;;18.30;99.90;;;;;;5006784;28;87337;-78
2023/07/24 05:52:44;;;;;;;6.32;2.95;;;18.20;99.90;;;;;;4988994;28;89507;-77
2023/07/24 05:55:10;;;;;;;4.90;2.90;;;18.20;99.90;;;;;;5005296;28;86974;-77
2023/07/24 05:57:36;;;;;;;10.07;2.90;;;18.20;99.90;;;;;;5005003;28;85895;-77
2023/07/24 06:00:04;;;;;;;7.07;2.70;;;18.20;99.90;;;;;;5006723;28;86212;-77
2023/07/24 06:02:30;;;;;;;4.65;2.70;;;18.20;99.90;;;;;;5005407;28;87001;-78
2023/07/24 06:04:55;;;;;;;5.47;2.60;;;18.20;99.90;;;;;;5003725;27;86307;-77
2023/07/24 06:07:21;;;;;;;4.25;2.45;;;18.20;99.90;;;;;;5007389;28;86568;-77
2023/07/24 06:09:46;;;;;;;8.05;2.90;;;18.20;99.90;;;;;;4987738;28;90158;-77
2023/07/24 06:12:12;;;;;;;7.93;2.88;;;18.20;99.90;;;;;;5007084;28;86597;-77
2023/07/24 06:14:38;;;;;;;4.90;2.13;;;18.20;99.90;;;;;;5006117;28;86536;-78
2023/07/24 06:17:03;;;;;;;7.18;2.72;;;18.20;99.90;;;;;;5006640;28;86355;-78
2023/07/24 06:19:29;;;;;;;5.55;2.13;;;18.20;99.90;;;;;;5004647;28;87601;-78
2023/07/24 06:21:55;;;;;;;7.45;2.30;;;18.10;99.90;;;;;;5006778;28;86532;-77
2023/07/24 06:24:20;;;;;;;3.35;2.00;;;18.10;99.90;;;;;;5006504;28;86089;-78
2023/07/24 06:26:46;;;;;;;2.42;1.95;;;18.20;99.90;;;;;;5004587;28;86192;-78
2023/07/24 06:29:12;;;;;;;5.65;2.20;;;18.10;99.90;;;;;;5000323;28;88790;-78
2023/07/24 06:31:37;;;;;;;6.20;2.50;;;18.10;99.90;;;;;;5000618;28;86582;-78
2023/07/24 06:34:03;;;;;;;4.07;2.40;;;18.10;99.90;;;;;;4999198;28;86361;-78
2023/07/24 06:36:28;;;;;;;6.68;2.67;;;18.10;99.90;;;;;;5004691;28;86338;-78
2023/07/24 06:38:54;;;;;;;2.85;1.83;;;18.10;99.90;;;;;;5006453;28;88039;-78
2023/07/24 06:41:21;;;;;;;4.82;2.20;;;18.10;99.90;;;;;;5007883;28;86439;-77
2023/07/24 06:43:46;;;;;;;4.55;2.25;;;18.10;99.90;;;;;;5009950;28;86316;-77
2023/07/24 06:46:12;;;;;;;4.88;2.17;;;18.10;99.90;;;;;;5008711;28;86100;-78
2023/07/24 06:48:38;;;;;;;4.90;1.80;;;18.10;99.90;;;;;;5007717;28;87824;-78
2023/07/24 06:51:03;;;;;;;4.53;2.22;;;18.20;99.90;;;;;;5009408;28;86337;-78
2023/07/24 06:53:29;;;;;;;6.00;2.05;;;18.20;99.90;;;;;;5009303;28;85867;-77
2023/07/24 06:55:54;;;;;;;4.88;2.03;;;18.20;99.90;;;;;;5008532;28;85928;-78
2023/07/24 06:58:20;;;;;;;6.30;2.30;;;18.20;99.90;;;;;;5009205;28;87302;-84
2023/07/24 07:00:46;;;;;;;3.97;2.05;;;18.30;99.90;;;;;;5009957;28;87110;-84
2023/07/24 07:03:11;;;;;;;4.07;2.40;;;18.30;99.90;;;;;;4991309;28;86321;-78
2023/07/24 07:05:37;;;;;;;4.57;2.30;;;18.40;99.90;;;;;;5009623;27;86271;-78
2023/07/24 07:08:02;;;;;;;3.65;2.22;;;18.50;99.90;;;;;;5010433;28;87989;-78
2023/07/24 07:10:28;;;;;;;2.67;1.70;;;18.60;99.90;;;;;;5009454;27;88744;-78
2023/07/24 07:12:54;;;;;;;2.40;1.35;;;18.60;99.90;;;;;;5009694;28;86361;-79
2023/07/24 07:15:20;;;;;;;1.60;1.30;;;18.50;99.90;;;;;;5009141;27;86334;-79
2023/07/24 07:17:46;;;;;;;1.67;1.00;;;18.50;99.60;;;;;;5009235;28;88537;-78
2023/07/24 07:20:11;;;;;;;2.00;0.98;;;18.40;99.20;;;;;;5007878;27;87967;-78
2023/07/24 07:22:37;;;;;;;2.20;1.05;;;18.40;99.40;;;;;;4990169;28;86720;-84
2023/07/24 07:25:03;;;;;;;1.48;1.35;;;18.40;99.50;;;;;;4990634;28;86630;-87
2023/07/24 07:27:28;;;;;;;2.67;1.23;;;18.50;99.50;;;;;;5008836;28;87224;-82
2023/07/24 07:29:54;;;;;;;2.33;1.23;;;18.50;99.30;;;;;;4991860;28;89716;-85
2023/07/24 07:32:19;;;;;;;2.20;1.40;;;18.60;99.30;;;;;;5007971;28;86173;-83
2023/07/24 07:34:45;;;;;;;1.65;1.00;;;18.60;99.10;;;;;;4989274;28;86431;-84
2023/07/24 07:37:10;;;;;;;3.65;1.17;;;18.60;99.10;;;;;;4989692;28;90175;-83
2023/07/24 07:39:36;;;;;;;1.13;1.02;;;18.60;99.20;;;;;;5005461;28;86883;-84
2023/07/24 07:42:01;;;;;;;2.13;1.40;;;18.70;99.00;;;;;;4991648;28;86311;-85
2023/07/24 07:44:27;;;;;;;1.88;1.30;;;18.70;98.90;;;;;;5006582;28;86537;-84
2023/07/24 07:46:53;;;;;;;3.20;1.00;;;18.80;99.10;;;;;;4987316;28;87217;-85
2023/07/24 07:49:18;;;;;;;2.40;1.30;;;18.90;98.80;;;;;;5021081;28;88541;-84
2023/07/24 07:51:44;;;;;;;3.03;1.40;;;19.00;98.60;;;;;;5008544;28;86580;-84
2023/07/24 07:54:10;;;;;;;4.22;1.20;;;19.10;98.40;;;;;;5023700;28;87244;-84
2023/07/24 07:56:36;;;;;;;5.03;1.40;;;19.20;98.40;;;;;;4990166;28;89258;-85
2023/07/24 07:59:01;;;;;;;1.67;1.27;;;19.30;97.90;;;;;;4989742;28;90413;-83
2023/07/24 08:01:27;;;;;;;3.15;1.80;;;19.30;98.00;;;;;;4986712;28;86982;-85
2023/07/24 08:03:52;;;;;;;3.42;1.60;;;19.40;97.90;;;;;;5022211;28;86113;-83
2023/07/24 08:06:18;;;;;;;2.60;1.80;;;19.50;97.70;;;;;;5008772;28;86358;-84
2023/07/24 08:08:43;;;;;;;3.05;1.63;;;19.50;97.80;;;;;;4991022;28;90133;-83
2023/07/24 08:11:09;;;;;;;4.47;1.52;;;19.60;97.50;;;;;;4990040;28;86343;-83
2023/07/24 08:13:35;;;;;;;3.05;2.13;;;19.70;97.70;;;;;;4989184;28;86523;-82
2023/07/24 08:16:02;;;;;;;3.22;2.10;;;19.90;97.30;;;;;;4990316;28;89912;-82
2023/07/24 08:18:31;;;;;;;4.75;1.88;;;20.00;96.10;;;;;;4989844;27;89927;-82
2023/07/24 08:20:57;;;;;;;4.60;2.30;;;20.00;96.10;;;;;;5006926;28;86728;-81
2023/07/24 08:23:22;;;;;;;3.60;2.13;;;20.10;96.50;;;;;;5021465;28;86564;-82
2023/07/24 08:25:55;;;;;;;2.67;2.10;;;20.20;96.50;;;;;;4990272;28;89441;-82
2023/07/24 08:28:21;;;;;;;4.63;2.17;;;20.20;95.80;;;;;;5005956;28;86940;-81
2023/07/24 08:30:56;;;;;;;4.40;1.83;;;20.30;94.90;;;;;;4988685;28;87216;-82
2023/07/24 08:33:22;;;;;;;4.30;1.85;;;20.40;96.00;;;;;;5020560;27;86306;-82
2023/07/24 08:35:56;;;;;;;3.67;1.90;;;20.40;95.40;;;;;;5022115;28;89153;-82
2023/07/24 08:38:24;;;;;;;6.38;2.38;;;20.50;95.50;;;;;;4986942;28;88447;-79
2023/07/24 08:40:59;;;;;;;3.75;2.10;;;20.60;95.60;;;;;;4987974;28;85950;-79
2023/07/24 08:43:25;;;;;;;3.22;1.92;;;20.60;95.20;;;;;;4989999;28;86588;-79
2023/07/24 08:45:51;;;;;;;4.45;2.13;;;20.70;95.10;;;;;;4985377;28;90729;-79
2023/07/24 08:48:18;;;;;;;4.65;2.00;;;20.90;95.50;;;;;;5006178;28;86175;-83
2023/07/24 08:50:46;;;;;;;3.40;1.92;;;21.00;95.40;;;;;;4989496;28;90052;-84
2023/07/24 08:53:13;;;;;;;2.92;1.90;;;21.10;94.80;;;;;;4987799;28;85979;-82
2023/07/24 08:55:39;;;;;;;7.15;2.10;;;21.20;94.20;;;;;;5022026;27;89227;-82
2023/07/24 08:58:06;;;;;;;4.07;2.10;;;21.30;93.80;;;;;;4987636;28;89001;-83
2023/07/24 09:00:32;;;;;;;4.18;1.95;;;21.40;93.70;;;;;;4987041;27;86527;-83
2023/07/24 09:02:58;;;;;;;3.40;1.70;;;21.40;93.30;;;;;;5022447;28;86275;-83
2023/07/24 09:05:23;;;;;;;4.03;2.42;;;21.30;92.80;;;;;;4988125;28;88275;-83
2023/07/24 09:07:49;;;;;;;4.25;2.30;;;21.30;93.10;;;;;;4990020;28;89604;-84
2023/07/24 09:10:15;;;;;;;3.60;2.47;;;21.30;92.90;;;;;;4990681;28;86260;-83
2023/07/24 09:12:42;;;;;;;5.15;1.75;;;21.30;92.70;;;;;;5022284;28;86010;-85
2023/07/24 09:15:08;;;;;;;4.57;1.63;;;21.30;93.10;;;;;;4989410;28;90059;-84
2023/07/24 09:17:34;;;;;;;2.10;1.60;;;21.30;93.30;;;;;;4987199;28;91388;-84
2023/07/24 09:20:01;;;;;;;3.33;1.75;;;21.30;93.40;;;;;;4987023;28;86306;-85
2023/07/24 09:22:27;;;;;;;2.83;1.92;;;21.30;94.00;;;;;;4989675;28;86386;-84
2023/07/24 09:24:54;;;;;;;4.82;2.10;;;21.40;94.20;;;;;;4989313;28;88987;-87
2023/07/24 09:27:20;;;;;;;2.60;1.42;;;21.40;93.70;;;;;;5023049;28;88770;-87
2023/07/24 09:29:46;;;;;;;4.75;2.20;;;21.30;93.50;;;;;;4987243;28;85962;-85
2023/07/24 09:32:28;;;;;;;2.45;1.70;;;21.30;93.70;;;;;;4990913;28;86715;-87
2023/07/24 09:34:54;;;;;;;2.88;2.08;;;21.20;93.10;;;;;;5019867;28;89164;-88
2023/07/24 09:37:33;;;;;;;4.30;2.00;;;21.20;93.30;;;;;;4991576;28;88350;-87
2023/07/24 09:39:59;;;;;;;3.40;1.80;;;21.00;93.20;;;;;;5020128;27;86455;-87
2023/07/24 09:42:32;;;;;;;5.10;1.80;;;20.90;93.70;;;;;;4989538;28;86545;-88
2023/07/24 09:44:58;;;;;;;8.63;2.77;;;20.80;94.10;;;;;;5006300;28;89410;-87
2023/07/24 09:47:24;;;;;;;4.38;2.15;;;20.60;94.40;;;;;;4990939;28;88410;-88
2023/07/24 09:49:52;;;;;;;4.45;2.30;;;20.40;94.60;;;;;;4988713;28;86535;-87
2023/07/24 09:52:19;;;;;;;4.80;2.40;;;20.30;95.10;;;;;;5021061;28;86537;-86
2023/07/24 09:55:19;;;;;;;4.72;2.78;;;20.30;95.30;;;;;;4987889;28;90023;-85
2023/07/24 09:57:46;;;;;;;4.50;3.13;;;20.10;95.50;;;;;;5018995;27;88599;-81
2023/07/24 10:00:12;;;;;;;4.43;3.03;;;20.00;97.10;;;;;;4988815;28;86368;-87
2023/07/24 10:02:39;;;;;;;3.45;1.77;;;19.90;96.80;;;;;;4990024;28;92974;-90
2023/07/24 10:05:06;;;;;;;2.90;0.73;;;19.60;94.90;;;;;;4992536;28;89302;-86
2023/07/24 10:07:32;;;;;;;3.80;0.60;;;19.20;94.30;;;;;;4991650;28;87913;-88
2023/07/24 10:09:58;;;;;;;0.40;0.38;;;18.80;94.40;;;;;;4990516;28;86145;-91
2023/07/24 10:12:27;;;;;;;3.17;0.43;;;18.50;94.30;;;;;;4988027;27;86107;-87
2023/07/24 10:14:55;;;;;;;0.35;0.20;;;18.20;95.30;;;;;;4997743;28;90477;-90
2023/07/24 10:17:40;;;;;;;0.50;0.40;;;18.10;95.40;;;;;;5003395;28;89303;-92
2023/07/24 10:20:11;;;;;;;1.60;0.40;;;18.00;96.00;;;;;;4997628;28;86374;-89
2023/07/24 10:22:41;;;;;;;3.03;0.55;;;17.90;96.60;;;;;;4997737;28;86229;-87
2023/07/24 10:25:08;;;;;;;1.00;0.30;;;17.90;97.10;;;;;;5023025;28;90135;-88
2023/07/24 10:27:44;;;;;;;0.20;0.20;;;18.00;96.70;;;;;;5022342;28;89647;-89
2023/07/24 10:30:10;;;;;;;1.75;0.30;;;18.00;97.50;;;;;;5023436;28;86655;-90
2023/07/24 10:32:49;;;;;;;0.73;0.35;;;18.10;97.80;;;;;;5023062;28;86410;-89
2023/07/24 10:35:16;;;;;;;0.85;0.30;;;18.40;97.80;;;;;;4995762;28;90259;-89
2023/07/24 10:37:42;;;;;;;1.55;0.30;;;18.50;97.20;;;;;;4988257;28;89648;-89
2023/07/24 10:40:19;;;;;;;0.45;0.30;;;18.60;96.70;;;;;;4989968;28;86214;-90
2023/07/24 10:42:45;;;;;;;1.00;0.35;;;18.80;96.80;;;;;;5003515;28;86350;-84
2023/07/24 10:45:11;;;;;;;2.28;0.40;;;19.00;96.60;;;;;;4989274;28;88960;-85
2023/07/24 10:47:36;;;;;;;0.68;0.30;;;19.20;98.20;;;;;;4985891;28;89022;-84
2023/07/24 10:50:03;;;;;;;0.60;0.30;;;19.40;96.20;;;;;;4990510;28;86046;-87
2023/07/24 10:52:32;;;;;;;0.47;0.30;;;19.60;96.10;;;;;;5020427;28;86326;-88
2023/07/24 10:55:05;;;;;;;1.30;0.50;;;19.70;95.40;;;;;;4988707;28;89154;-89
2023/07/24 10:57:31;;;;;;;3.97;0.77;;;19.80;94.20;;;;;;5021124;28;89373;-88
2023/07/24 10:59:57;;;;;;;0.68;0.40;;;19.90;94.90;;;;;;4990687;28;86535;-87
2023/07/24 11:02:23;;;;;;;0.73;0.63;;;20.00;94.40;;;;;;4987634;28;86444;-84
2023/07/24 11:04:49;;;;;;;1.05;0.88;;;20.00;94.50;;;;;;4985419;28;89228;-86
2023/07/24 11:07:15;;;;;;;1.10;0.80;;;20.00;93.50;;;;;;4984531;28;89711;-86
2023/07/24 11:09:41;;;;;;;0.80;0.60;;;19.90;94.10;;;;;;4986236;28;86098;-87
2023/07/24 11:12:14;;;;;;;2.13;0.95;;;19.80;94.30;;;;;;5021123;28;86233;-87
2023/07/24 11:14:50;;;;;;;2.92;1.90;;;19.70;94.70;;;;;;4987574;28;90047;-87
2023/07/24 11:17:16;;;;;;;2.28;1.48;;;19.70;94.50;;;;;;4987983;28;89920;-86
2023/07/24 11:19:42;;;;;;;3.63;1.25;;;19.70;94.70;;;;;;4986962;28;86451;-87
2023/07/24 11:22:07;;;;;;;1.88;1.60;;;19.70;95.00;;;;;;4988196;28;86374;-86
2023/07/24 11:24:42;;;;;;;2.22;1.90;;;19.70;95.60;;;;;;4990503;27;87988;-87
2023/07/24 11:27:13;;;;;;;3.85;1.80;;;19.80;95.70;;;;;;4990719;28;88777;-85
2023/07/24 11:29:39;;;;;;;3.03;1.65;;;19.80;95.20;;;;;;4999301;28;86730;-87
2023/07/24 11:32:06;;;;;;;1.85;1.40;;;19.80;95.70;;;;;;5023036;27;86334;-86
2023/07/24 11:34:32;;;;;;;2.35;1.50;;;19.90;96.10;;;;;;5022307;28;90129;-85
2023/07/24 11:36:59;;;;;;;5.40;1.75;;;20.10;95.50;;;;;;4987980;28;89612;-84
2023/07/24 11:39:24;;;;;;;3.45;1.65;;;20.20;95.30;;;;;;5017857;28;86636;-84
2023/07/24 11:41:50;;;;;;;1.20;1.10;;;20.30;95.80;;;;;;4988543;28;86820;-84
2023/07/24 11:44:17;;;;;;;2.58;1.60;;;20.40;94.00;;;;;;4988083;28;90849;-85
2023/07/24 11:46:43;;;;;;;2.35;1.40;;;20.50;94.20;;;;;;4989068;28;88758;-84
2023/07/24 11:49:13;;;;;;;2.72;1.92;;;20.60;94.60;;;;;;5007457;27;86846;-84
2023/07/24 11:51:39;;;;;;;1.90;1.63;;;20.70;93.90;;;;;;4989690;28;86436;-84
2023/07/24 11:54:11;;;;;;;2.25;1.63;;;20.70;95.00;;;;;;5021866;28;90676;-83
2023/07/24 11:56:37;;;;;;;3.72;1.52;;;20.80;93.20;;;;;;5022464;28;89517;-84
2023/07/24 11:59:15;;;;;;;2.53;1.58;;;20.90;92.90;;;;;;4986891;28;86454;-84
2023/07/24 12:01:45;;;;;;;3.53;1.70;;;20.90;92.50;;;;;;5022832;27;87030;-83
2023/07/24 12:04:10;;;;;;;1.67;1.30;;;20.90;92.80;;;;;;4988349;28;89572;-82
2023/07/24 12:06:37;;;;;;;2.45;1.70;;;20.90;92.20;;;;;;5005170;27;86532;-83
2023/07/24 12:09:07;;;;;;;4.05;1.63;;;21.00;91.90;;;;;;4998433;28;86673;-83
2023/07/24 12:11:33;;;;;;;2.40;1.95;;;21.00;92.20;;;;;;5019180;27;86274;-82
2023/07/24 12:13:59;;;;;;;6.05;1.95;;;21.10;92.90;;;;;;4989318;28;89862;-82
2023/07/24 12:16:25;;;;;;;2.42;1.80;;;21.20;91.70;;;;;;4989323;28;88702;-82
2023/07/24 12:18:50;;;;;;;2.38;1.80;;;21.30;91.90;;;;;;4986621;28;86215;-81
2023/07/24 12:21:16;;;;;;;3.13;1.95;;;21.40;91.70;;;;;;5022421;28;86135;-82
2023/07/24 12:23:41;;;;;;;2.20;1.70;;;21.40;90.70;;;;;;4986005;28;89565;-82
2023/07/24 12:26:07;;;;;;;2.75;1.58;;;21.30;90.30;;;;;;5021055;27;88174;-77
2023/07/24 12:28:33;;;;;;;4.15;1.98;;;21.20;90.40;;;;;;4990368;28;86859;-78
2023/07/24 12:30:59;;;;;;;5.55;1.85;;;21.10;90.60;;;;;;5007879;28;86584;-80
2023/07/24 12:33:25;;;;;;;1.67;1.58;;;21.00;90.50;;;;;;4989132;28;87809;-80
2023/07/24 12:35:51;;;;;;;2.45;1.23;;;20.90;89.60;;;;;;4987224;28;88684;-78
2023/07/24 12:38:17;;;;;;;2.35;1.23;;;20.70;89.70;;;;;;5008399;28;86983;-80
2023/07/24 12:40:43;;;;;;;4.13;1.40;;;20.50;89.80;;;;;;5005463;27;86785;-80